createdAt,value
2019-03-06T00:00:10.933Z,73.94
2019-03-06T00:02:44.247Z,74.26
2019-03-06T00:05:16.006Z,74.02
2019-03-06T00:07:47.793Z,74.16
2019-03-06T00:10:24.296Z,74.11
2019-03-06T00:12:56.169Z,74.56
2019-03-06T00:15:27.854Z,74.36
2019-03-06T00:17:59.644Z,74.24
2019-03-06T00:20:31.446Z,73.92
2019-03-06T00:23:03.138Z,74.23
2019-03-06T00:25:34.805Z,74.12
2019-03-06T00:28:06.850Z,74.14
2019-03-06T00:30:38.632Z,74.12
2019-03-06T00:33:10.618Z,74.10
2019-03-06T00:35:45.170Z,74.42
2019-03-06T00:38:16.887Z,74.48
2019-03-06T00:40:53.682Z,74.73
2019-03-06T00:43:25.360Z,74.91
2019-03-06T00:45:56.959Z,74.90
2019-03-06T00:48:28.604Z,75.05
2019-03-06T00:51:00.256Z,74.91
2019-03-06T00:53:31.975Z,75.21
2019-03-06T00:56:03.829Z,75.36
2019-03-06T00:58:35.730Z,75.14
2019-03-06T01:01:07.610Z,75.29
2019-03-06T01:03:39.342Z,75.57
2019-03-06T01:06:11.008Z,75.30
2019-03-06T01:08:43.046Z,75.29
2019-03-06T01:11:15.667Z,75.68
2019-03-06T01:13:47.380Z,75.58
2019-03-06T01:16:19.031Z,75.82
2019-03-06T01:18:50.764Z,75.82
2019-03-06T01:21:23.384Z,76.02
2019-03-06T01:23:55.131Z,75.97
2019-03-06T01:26:26.865Z,75.95
2019-03-06T01:28:58.601Z,76.17
2019-03-06T01:31:30.358Z,76.94
2019-03-06T01:34:29.694Z,76.60
2019-03-06T01:37:22.483Z,76.47
2019-03-06T01:40:25.138Z,76.42
2019-03-06T01:43:08.717Z,76.60
2019-03-06T01:45:40.618Z,76.40
2019-03-06T01:48:12.343Z,76.52
2019-03-06T01:50:43.987Z,76.43
2019-03-06T01:53:15.686Z,76.43
2019-03-06T01:55:47.417Z,76.41
2019-03-06T01:58:19.142Z,76.45
2019-03-06T02:00:50.803Z,76.50
2019-03-06T02:03:23.634Z,76.86
2019-03-06T02:05:55.360Z,77.07
2019-03-06T02:08:27.077Z,77.01
2019-03-06T02:10:58.738Z,76.97
2019-03-06T02:13:30.454Z,76.92
2019-03-06T02:16:02.160Z,76.84
2019-03-06T02:18:33.879Z,76.92
2019-03-06T02:21:05.746Z,76.75
2019-03-06T02:23:37.658Z,76.56
2019-03-06T02:26:09.404Z,76.39
2019-03-06T02:28:41.127Z,76.49
2019-03-06T02:31:12.921Z,76.35
2019-03-06T02:33:44.714Z,76.35
2019-03-06T02:36:16.519Z,76.37
2019-03-06T02:38:48.155Z,76.21
2019-03-06T02:41:19.899Z,76.17
2019-03-06T02:43:51.664Z,75.70
2019-03-06T02:46:24.286Z,75.73
2019-03-06T02:48:55.992Z,75.52
2019-03-06T02:51:27.672Z,75.12
2019-03-06T02:53:59.484Z,74.92
2019-03-06T02:56:31.363Z,75.19
2019-03-06T02:59:11.034Z,75.47
2019-03-06T03:02:04.536Z,75.20
2019-03-06T03:04:50.875Z,75.35
2019-03-06T03:07:22.699Z,75.28
2019-03-06T03:09:54.484Z,75.14
2019-03-06T03:12:26.207Z,75.28
2019-03-06T03:14:57.932Z,75.21
2019-03-06T03:17:29.592Z,75.50
2019-03-06T03:20:01.377Z,75.63
2019-03-06T03:22:34.511Z,75.78
2019-03-06T03:25:06.638Z,75.69
2019-03-06T03:27:38.298Z,75.54
2019-03-06T03:30:12.545Z,75.94
2019-03-06T03:32:44.332Z,75.60
2019-03-06T03:35:16.130Z,75.60
2019-03-06T03:37:47.780Z,75.74
2019-03-06T03:40:19.441Z,75.95
2019-03-06T03:42:51.196Z,75.69
2019-03-06T03:45:22.948Z,75.69
2019-03-06T03:47:55.648Z,75.64
2019-03-06T03:50:28.636Z,76.07
2019-03-06T03:53:00.394Z,75.71
2019-03-06T03:55:32.041Z,75.71
2019-03-06T03:58:03.893Z,75.47
2019-03-06T04:00:35.755Z,75.45
2019-03-06T04:03:07.960Z,75.34
2019-03-06T04:05:39.683Z,74.96
2019-03-06T04:08:11.355Z,74.93
2019-03-06T04:10:42.998Z,74.69
2019-03-06T04:13:14.641Z,74.53
2019-03-06T04:15:46.255Z,74.52
2019-03-06T04:18:17.950Z,74.48
2019-03-06T04:20:49.569Z,74.34
2019-03-06T04:23:21.534Z,74.24
2019-03-06T04:25:53.229Z,73.84
2019-03-06T04:28:24.901Z,73.47
2019-03-06T04:30:56.488Z,73.41
2019-03-06T04:33:28.184Z,73.12
2019-03-06T04:35:59.836Z,73.11
2019-03-06T04:38:31.542Z,73.11
2019-03-06T04:41:03.149Z,72.57
2019-03-06T04:43:34.780Z,72.59
2019-03-06T04:46:06.386Z,72.65
2019-03-06T04:48:38.175Z,72.73
2019-03-06T04:51:09.759Z,72.72
2019-03-06T04:53:41.426Z,72.59
2019-03-06T04:56:13.160Z,72.79
2019-03-06T04:58:44.766Z,72.53
2019-03-06T05:01:16.364Z,72.65
2019-03-06T05:03:48.058Z,72.64
2019-03-06T05:06:19.806Z,72.67
2019-03-06T05:08:51.424Z,73.06
2019-03-06T05:11:23.013Z,73.56
2019-03-06T05:13:54.629Z,73.42
2019-03-06T05:16:44.175Z,73.70
2019-03-06T05:19:15.879Z,73.64
2019-03-06T05:21:47.559Z,73.80
2019-03-06T05:24:19.242Z,73.77
2019-03-06T05:26:50.857Z,73.85
2019-03-06T05:29:22.505Z,73.55
2019-03-06T05:32:30.757Z,73.62
2019-03-06T05:35:05.116Z,73.38
2019-03-06T05:38:15.142Z,73.46
2019-03-06T05:40:46.730Z,73.40
2019-03-06T05:43:18.399Z,73.29
2019-03-06T05:45:50.408Z,73.33
2019-03-06T05:48:22.025Z,73.76
2019-03-06T05:50:53.623Z,74.08
2019-03-06T05:53:25.290Z,73.96
2019-03-06T05:55:57.162Z,73.89
2019-03-06T05:58:28.744Z,74.16
2019-03-06T06:01:00.422Z,73.90
2019-03-06T06:03:32.087Z,74.12
2019-03-06T06:06:04.118Z,74.18
2019-03-06T06:08:35.741Z,74.53
2019-03-06T06:11:07.640Z,74.42
2019-03-06T06:13:39.243Z,74.60
2019-03-06T06:16:10.855Z,74.49
2019-03-06T06:18:42.475Z,74.63
2019-03-06T06:21:32.517Z,74.76
2019-03-06T06:24:13.718Z,74.68
2019-03-06T06:26:45.328Z,74.49
2019-03-06T06:29:17.003Z,74.49
2019-03-06T06:31:48.609Z,74.47
2019-03-06T06:34:20.489Z,74.47
2019-03-06T06:36:52.099Z,74.13
2019-03-06T06:39:23.769Z,74.12
2019-03-06T06:41:55.426Z,74.14
2019-03-06T06:44:27.605Z,73.98
2019-03-06T06:46:59.415Z,73.97
2019-03-06T06:49:31.072Z,74.15
2019-03-06T06:52:23.097Z,74.18
2019-03-06T06:55:05.769Z,74.09
2019-03-06T06:58:15.010Z,74.21
2019-03-06T07:01:19.705Z,73.88
2019-03-06T07:04:42.226Z,73.97
2019-03-06T07:07:50.743Z,73.94
2019-03-06T07:10:39.948Z,73.25
2019-03-06T07:13:34.771Z,73.25
2019-03-06T07:16:43.509Z,73.28
2019-03-06T07:19:34.036Z,72.98
2019-03-06T07:22:20.331Z,72.78
2019-03-06T07:24:59.707Z,72.94
2019-03-06T07:27:59.195Z,72.66
2019-03-06T07:30:39.592Z,72.43
2019-03-06T07:33:42.336Z,72.71
2019-03-06T08:01:35.533Z,71.51
2019-03-06T08:04:11.986Z,71.11
2019-03-06T08:06:47.583Z,71.00
2019-03-06T08:09:20.672Z,70.55
2019-03-06T08:12:14.287Z,69.98
2019-03-06T08:14:54.849Z,70.01
2019-03-06T08:17:42.552Z,69.06
2019-03-06T08:20:45.243Z,68.90
2019-03-06T08:23:23.175Z,69.45
2019-03-06T08:25:54.849Z,68.90
2019-03-06T08:28:26.511Z,69.16
2019-03-06T08:31:10.167Z,68.24
2019-03-06T08:33:41.833Z,67.76
2019-03-06T08:36:13.505Z,67.77
2019-03-06T08:38:45.180Z,67.88
2019-03-06T08:41:16.807Z,67.63
2019-03-06T08:43:48.498Z,67.12
2019-03-06T08:46:40.111Z,66.56
2019-03-06T08:49:43.660Z,66.80
2019-03-06T08:52:21.419Z,66.37
2019-03-06T08:55:15.737Z,66.44
2019-03-06T08:58:15.495Z,65.66
2019-03-06T09:00:59.261Z,64.77
2019-03-06T09:03:46.153Z,64.81
2019-03-06T09:06:32.914Z,64.54
2019-03-06T09:09:25.452Z,64.47
2019-03-06T09:12:15.231Z,63.62
2019-03-06T09:15:11.879Z,62.73
2019-03-06T09:18:08.872Z,62.28
2019-03-06T09:21:08.468Z,62.36
2019-03-06T09:23:57.506Z,61.86
2019-03-06T09:26:48.024Z,61.88
2019-03-06T09:29:41.670Z,61.11
2019-03-06T09:32:32.450Z,59.84
2019-03-06T09:35:23.311Z,59.91
2019-03-06T09:38:12.584Z,60.14
2019-03-06T09:41:05.873Z,59.35
2019-03-06T09:43:56.439Z,58.76
2019-03-06T09:46:45.609Z,58.18
2019-03-06T09:49:46.754Z,56.97
2019-03-06T09:52:52.714Z,57.15
2019-03-06T09:55:43.425Z,56.57
2019-03-06T09:58:43.075Z,56.17
2019-03-06T10:01:32.263Z,55.82
2019-03-06T10:04:23.300Z,54.32
2019-03-06T10:07:12.439Z,54.70
2019-03-06T10:10:08.880Z,53.47
2019-03-06T10:12:54.822Z,52.63
2019-03-06T10:15:37.136Z,51.53
2019-03-06T10:18:31.980Z,52.59
2019-03-06T10:21:04.780Z,51.63
2019-03-06T10:23:36.478Z,51.10
2019-03-06T10:26:08.153Z,51.28
2019-03-06T10:28:42.901Z,51.39
2019-03-06T10:31:16.907Z,49.40
2019-03-06T10:33:50.692Z,48.78
2019-03-06T10:36:24.980Z,49.85
2019-03-06T10:38:58.283Z,48.45
2019-03-06T10:41:32.243Z,47.81
2019-03-06T10:44:07.604Z,46.82
2019-03-06T10:46:42.644Z,47.48
2019-03-06T10:49:16.607Z,47.27
2019-03-06T10:51:48.721Z,46.44
2019-03-06T10:54:23.080Z,45.95
2019-03-06T10:56:56.809Z,45.58
2019-03-06T10:59:28.879Z,46.03
2019-03-06T11:02:00.649Z,45.41
2019-03-06T11:05:03.667Z,45.12
2019-03-06T11:07:35.339Z,44.00
2019-03-06T11:10:08.151Z,44.66
2019-03-06T11:12:40.908Z,44.10
2019-03-06T11:15:12.702Z,43.74
2019-03-06T11:17:44.655Z,44.99
2019-03-06T11:20:19.011Z,45.16
2019-03-06T11:22:51.698Z,43.21
2019-03-06T11:25:23.744Z,43.25
2019-03-06T11:27:55.602Z,42.71
2019-03-06T11:30:33.330Z,40.60
2019-03-06T11:33:05.834Z,41.51
2019-03-06T11:35:37.673Z,41.15
2019-03-06T11:38:09.711Z,41.29
2019-03-06T11:40:42.453Z,41.34
2019-03-06T11:43:15.649Z,41.19
2019-03-06T11:45:47.345Z,41.34
2019-03-06T11:48:19.109Z,42.26
2019-03-06T11:50:51.000Z,42.20
2019-03-06T11:53:22.693Z,42.45
2019-03-06T11:55:54.539Z,42.40
2019-03-06T11:58:26.466Z,42.03
2019-03-06T12:00:58.158Z,41.69
2019-03-06T12:03:30.123Z,42.38
2019-03-06T12:06:01.896Z,43.10
2019-03-06T12:08:33.584Z,42.60
2019-03-06T12:11:05.288Z,42.87
2019-03-06T12:13:37.142Z,41.66
2019-03-06T12:16:10.009Z,41.78
2019-03-06T12:18:41.781Z,41.94
2019-03-06T12:21:13.466Z,41.39
2019-03-06T12:23:45.553Z,41.09
2019-03-06T12:26:17.311Z,40.63
2019-03-06T12:28:49.284Z,41.63
2019-03-06T12:31:21.378Z,39.86
2019-03-06T12:33:53.350Z,39.99
2019-03-06T12:36:25.111Z,39.21
2019-03-06T12:38:56.794Z,39.86
2019-03-06T12:41:28.435Z,40.35
2019-03-06T12:44:00.123Z,39.43
2019-03-06T12:46:32.411Z,39.01
2019-03-06T12:49:09.096Z,38.55
2019-03-06T12:51:41.202Z,38.62
2019-03-06T12:54:12.886Z,37.49
2019-03-06T12:56:44.505Z,37.94
2019-03-06T12:59:16.180Z,37.32
2019-03-06T13:01:48.089Z,37.41
2019-03-06T13:04:20.750Z,37.40
2019-03-06T13:06:52.725Z,37.54
2019-03-06T13:09:24.557Z,38.22
2019-03-06T13:11:56.494Z,37.66
2019-03-06T13:14:30.466Z,37.31
2019-03-06T13:17:01.748Z,36.57
2019-03-06T13:19:33.412Z,37.31
2019-03-06T13:22:11.067Z,36.73
2019-03-06T13:24:38.402Z,36.97
2019-03-06T13:27:10.031Z,36.35
2019-03-06T13:29:41.834Z,36.56
2019-03-06T13:32:13.564Z,37.18
2019-03-06T13:34:52.487Z,37.17
2019-03-06T13:37:24.574Z,37.51
2019-03-06T13:39:56.486Z,37.74
2019-03-06T13:42:28.207Z,37.83
2019-03-06T13:44:59.811Z,38.25
2019-03-06T13:48:42.613Z,37.77
2019-03-06T13:51:15.194Z,37.64
2019-03-06T13:53:46.912Z,38.30
2019-03-06T13:56:18.590Z,38.75
2019-03-06T13:58:50.273Z,39.21
2019-03-06T14:01:22.026Z,39.23
2019-03-06T14:03:53.901Z,38.73
2019-03-06T14:06:25.585Z,37.40
2019-03-06T14:08:57.266Z,36.46
2019-03-06T14:11:28.978Z,36.19
2019-03-06T14:14:00.672Z,36.52
2019-03-06T14:16:32.550Z,36.72
2019-03-06T14:19:04.160Z,35.75
2019-03-06T14:21:35.855Z,35.86
2019-03-06T14:24:07.543Z,35.15
2019-03-06T14:26:40.516Z,35.30
2019-03-06T14:29:12.149Z,35.38
2019-03-06T14:31:43.772Z,35.19
2019-03-06T14:34:15.459Z,36.43
2019-03-06T14:36:47.165Z,36.18
2019-03-06T14:39:30.034Z,35.48
2019-03-06T14:42:01.658Z,36.04
2019-03-06T14:44:33.432Z,37.03
2019-03-06T14:47:05.038Z,37.58
2019-03-06T14:49:36.915Z,38.37
2019-03-06T14:52:08.594Z,38.95
2019-03-06T14:54:40.234Z,39.04
2019-03-06T14:57:11.847Z,39.52
2019-03-06T14:59:43.538Z,39.63
2019-03-06T15:02:15.313Z,39.21
2019-03-06T15:04:47.007Z,38.68
2019-03-06T15:07:18.685Z,38.47
2019-03-06T15:31:51.854Z,38.83
2019-03-06T15:34:23.462Z,39.22
2019-03-06T15:36:55.147Z,39.92
2019-03-06T15:39:42.552Z,40.09
2019-03-06T15:42:11.850Z,40.46
2019-03-06T15:44:43.778Z,40.57
2019-03-06T15:47:15.631Z,41.08
2019-03-06T15:49:47.523Z,41.25
2019-03-06T15:52:19.127Z,41.65
2019-03-06T15:54:52.699Z,41.87
2019-03-06T15:57:24.477Z,41.99
2019-03-06T15:59:56.100Z,42.07
2019-03-06T16:02:28.129Z,42.54
2019-03-06T16:04:59.819Z,42.74
2019-03-06T16:07:31.432Z,43.05
2019-03-06T16:10:03.037Z,42.88
2019-03-06T16:12:34.808Z,43.54
2019-03-06T16:15:06.557Z,43.44
2019-03-06T16:17:38.322Z,43.69
2019-03-06T16:20:14.399Z,44.12
2019-03-06T16:22:46.124Z,44.10
2019-03-06T16:25:17.872Z,44.51
2019-03-06T16:27:49.485Z,44.57
2019-03-06T16:30:21.108Z,45.18
2019-03-06T16:32:52.747Z,44.72
2019-03-06T16:35:24.505Z,44.83
2019-03-06T16:37:56.109Z,44.81
2019-03-06T16:40:30.556Z,45.04
2019-03-06T16:43:02.435Z,45.37
2019-03-06T16:45:34.042Z,45.22
2019-03-06T16:48:05.879Z,45.40
2019-03-06T16:50:37.569Z,45.52
2019-03-06T16:53:09.549Z,45.72
2019-03-06T16:55:41.530Z,45.46
2019-03-06T16:58:13.150Z,45.46
2019-03-06T17:00:44.834Z,45.67
2019-03-06T17:03:16.602Z,45.72
2019-03-06T17:05:48.288Z,46.00
2019-03-06T17:08:19.985Z,45.97
2019-03-06T17:10:51.598Z,46.38
2019-03-06T17:13:23.213Z,46.58
2019-03-06T17:15:54.903Z,46.60
2019-03-06T17:18:26.687Z,46.64
2019-03-06T17:21:00.581Z,47.00
2019-03-06T17:23:36.324Z,47.18
2019-03-06T17:26:13.568Z,47.23
2019-03-06T17:28:47.403Z,47.48
2019-03-06T17:31:22.334Z,47.29
2019-03-06T17:33:56.728Z,47.41
2019-03-06T17:36:28.912Z,47.72
2019-03-06T17:39:02.225Z,47.43
2019-03-06T17:41:37.827Z,47.44
2019-03-06T17:44:11.195Z,47.40
2019-03-06T17:46:43.874Z,47.33
2019-03-06T17:49:17.936Z,47.36
2019-03-06T17:51:52.961Z,47.15
2019-03-06T17:54:25.060Z,47.15
2019-03-06T17:56:57.267Z,46.94
2019-03-06T17:59:30.281Z,46.79
2019-03-06T18:02:02.470Z,46.78
2019-03-06T18:04:34.136Z,46.94
2019-03-06T18:07:06.286Z,46.81
2019-03-06T18:09:38.328Z,46.61
2019-03-06T18:12:10.329Z,46.43
2019-03-06T18:14:42.503Z,46.49
2019-03-06T18:17:14.483Z,46.49
2019-03-06T18:19:46.610Z,46.76
2019-03-06T18:22:18.623Z,46.51
2019-03-06T18:24:51.154Z,46.42
2019-03-06T18:27:26.601Z,46.47
2019-03-06T18:30:00.469Z,46.40
2019-03-06T18:32:34.594Z,46.41
2019-03-06T18:35:07.358Z,46.60
2019-03-06T18:37:40.587Z,46.80
2019-03-06T18:40:16.685Z,46.50
2019-03-06T18:42:51.096Z,46.80
2019-03-06T18:45:25.909Z,46.98
2019-03-06T18:47:58.333Z,46.52
2019-03-06T18:50:30.355Z,46.70
2019-03-06T18:53:02.175Z,46.74
2019-03-06T18:55:35.531Z,46.48
2019-03-06T18:58:08.397Z,46.81
2019-03-06T19:00:41.699Z,46.70
2019-03-06T19:03:16.499Z,46.96
2019-03-06T19:05:50.725Z,46.79
2019-03-06T19:08:31.035Z,47.21
2019-03-06T19:11:00.894Z,47.26
2019-03-06T19:17:23.425Z,47.71
2019-03-06T19:19:56.190Z,48.21
2019-03-06T19:22:31.122Z,48.29
2019-03-06T19:25:03.383Z,48.35
2019-03-06T19:27:35.100Z,48.70
2019-03-06T19:30:14.417Z,48.53
2019-03-06T19:32:46.434Z,48.76
2019-03-06T19:35:19.611Z,48.92
2019-03-06T19:37:51.732Z,49.05
2019-03-06T19:40:23.583Z,49.17
2019-03-06T19:42:55.450Z,49.33
2019-03-06T19:45:27.292Z,49.53
2019-03-06T19:47:59.223Z,49.84
2019-03-06T19:50:30.977Z,49.93
2019-03-06T19:53:02.805Z,50.09
2019-03-06T19:55:34.480Z,50.26
2019-03-06T19:58:07.436Z,50.45
2019-03-06T20:00:39.176Z,50.43
2019-03-06T20:03:11.098Z,50.40
2019-03-06T20:05:43.278Z,50.58
2019-03-06T20:08:17.303Z,50.66
2019-03-06T20:10:49.899Z,50.80
2019-03-06T20:13:21.810Z,51.23
2019-03-06T20:15:53.555Z,51.22
2019-03-06T20:18:25.445Z,51.31
2019-03-06T20:20:57.269Z,51.28
2019-03-06T20:23:29.113Z,51.61
2019-03-06T20:26:00.894Z,51.67
2019-03-06T20:28:32.862Z,51.69
2019-03-06T20:31:04.841Z,51.79
2019-03-06T20:33:36.643Z,51.82
2019-03-06T20:36:08.525Z,51.83
2019-03-06T20:38:41.045Z,52.06
2019-03-06T20:41:13.132Z,52.23
2019-03-06T20:43:45.417Z,52.28
2019-03-06T20:46:17.121Z,52.29
2019-03-06T20:48:48.960Z,52.29
2019-03-06T20:51:20.663Z,52.55
2019-03-06T20:53:52.614Z,52.64
2019-03-06T20:56:25.412Z,53.15
2019-03-06T20:58:57.859Z,52.84
2019-03-06T21:01:29.901Z,52.69
2019-03-06T21:04:02.708Z,53.32
2019-03-06T21:06:36.320Z,53.14
2019-03-06T21:09:07.938Z,53.07
2019-03-06T21:11:40.204Z,52.91
2019-03-06T21:14:12.261Z,52.83
2019-03-06T21:16:43.939Z,52.71
2019-03-06T21:19:16.305Z,53.01
2019-03-06T21:21:49.392Z,53.21
2019-03-06T21:24:21.100Z,52.83
2019-03-06T21:26:52.702Z,53.19
2019-03-06T21:29:24.327Z,52.90
2019-03-06T21:31:55.921Z,53.07
2019-03-06T21:34:27.603Z,53.05
2019-03-06T21:36:59.361Z,53.21
2019-03-06T21:39:30.995Z,53.09
2019-03-06T21:42:02.690Z,53.38
2019-03-06T21:44:34.464Z,53.23
2019-03-06T21:47:06.198Z,53.25
2019-03-06T21:49:37.961Z,53.27
2019-03-06T21:52:09.627Z,53.41
2019-03-06T21:54:41.306Z,53.43
2019-03-06T21:57:14.055Z,53.42
2019-03-06T21:59:45.747Z,53.40
2019-03-06T22:02:17.443Z,53.67
2019-03-06T22:04:49.229Z,53.55
2019-03-06T22:07:20.953Z,53.42
2019-03-06T22:09:52.744Z,53.60
2019-03-06T22:12:24.413Z,53.49
2019-03-06T22:14:56.181Z,53.80
2019-03-06T22:17:27.780Z,53.71
2019-03-06T22:19:59.463Z,53.87
2019-03-06T22:22:31.169Z,53.96
2019-03-06T22:25:02.895Z,53.79
2019-03-06T22:27:34.740Z,53.63
2019-03-06T22:30:07.533Z,53.72
2019-03-06T22:32:39.197Z,53.71
2019-03-06T22:35:10.926Z,53.97
2019-03-06T22:37:42.880Z,53.70
2019-03-06T22:40:15.422Z,54.11
2019-03-06T22:42:47.026Z,54.26
2019-03-06T22:45:18.747Z,53.85
2019-03-06T22:47:50.488Z,54.22
2019-03-06T22:50:22.231Z,54.55
2019-03-06T22:52:54.077Z,54.15
2019-03-06T22:55:25.674Z,54.29
2019-03-06T22:57:57.265Z,54.41
2019-03-06T23:00:49.051Z,54.05
2019-03-06T23:03:21.329Z,54.24
2019-03-06T23:05:52.983Z,54.17
2019-03-06T23:08:24.650Z,54.38
2019-03-06T23:10:56.302Z,54.54
2019-03-06T23:13:28.248Z,54.80
2019-03-06T23:15:59.952Z,54.80
2019-03-06T23:18:31.588Z,54.78
2019-03-06T23:21:03.224Z,54.83
2019-03-06T23:23:34.977Z,54.91
2019-03-06T23:26:06.736Z,54.85
2019-03-06T23:28:38.407Z,54.94
2019-03-06T23:31:10.021Z,55.20
2019-03-06T23:33:41.784Z,55.13
2019-03-06T23:36:13.685Z,55.48
2019-03-06T23:38:45.585Z,55.23
2019-03-06T23:41:17.264Z,55.13
2019-03-06T23:43:48.928Z,55.26
2019-03-06T23:46:20.545Z,55.54
2019-03-06T23:48:52.496Z,55.44
2019-03-06T23:51:37.917Z,55.42
2019-03-06T23:54:09.528Z,55.55
2019-03-06T23:56:41.205Z,55.50
2019-03-06T23:59:12.861Z,55.54
